CMA CGM Nevada — 9HA3474 — position and weather

sailwx.info

Track history (hours):
 
Tides and Currents Weather Stations Pressure Air Temp Water Temp Dewpoint Dewpoint Depression Visibility Wind Speed Wind Dir Waves Ship Positions

CMA CGM Nevada

Last reported at 2018-Jun-24 04:59 UTC. Time now 2018-Jun-24 05:07 UTC.
Position N 51°17' E 004°16'.

Length 366 m; draft 12.5 m.

Type: Ship (hazmat cat A). MMSI: 229639000.

Date/timePositionNaut miles runAvg speedWind from/ knotsBaromVisibWave heightAir tempDewpointWater temp
2018-Jun-24 04:59N 51°17' E 004°16'0 0.0
2018-Jun-24 04:29N 51°17' E 004°16'0 0.0
2018-Jun-24 03:59N 51°17' E 004°16'0 0.0
2018-Jun-24 03:29N 51°17' E 004°16'0 0.0
2018-Jun-24 02:59N 51°17' E 004°16'0 0.0
2018-Jun-24 02:29N 51°17' E 004°16'0 0.0
2018-Jun-24 01:59N 51°17' E 004°16'0 0.0
2018-Jun-24 01:29N 51°17' E 004°16'0 0.0
2018-Jun-24 00:59N 51°17' E 004°16'0 0.0
2018-Jun-24 00:29N 51°17' E 004°16'0 0.0
2018-Jun-23 23:59N 51°17' E 004°16'0 0.0
2018-Jun-23 23:29N 51°17' E 004°16'0 0.0
2018-Jun-23 22:59N 51°17' E 004°16'0 0.0
2018-Jun-23 22:29N 51°17' E 004°16'0 0.0
2018-Jun-23 21:56N 51°17' E 004°16'0 0.0
2018-Jun-23 21:29N 51°17' E 004°16'0 0.0
2018-Jun-23 20:59N 51°17' E 004°16'0 0.0
2018-Jun-23 20:29N 51°17' E 004°16'0 0.0
2018-Jun-23 19:59N 51°17' E 004°16'0 0.0
2018-Jun-23 19:29N 51°17' E 004°16'0 0.0
2018-Jun-23 18:59N 51°17' E 004°16'0 0.0
2018-Jun-23 18:29N 51°17' E 004°16'0 0.0
2018-Jun-23 17:59N 51°17' E 004°16'0 0.0
2018-Jun-23 17:23N 51°17' E 004°16'0 0.0
2018-Jun-23 16:59N 51°17' E 004°16'0 0.0
2018-Jun-23 16:29N 51°17' E 004°16'0 0.0
2018-Jun-23 15:59N 51°17' E 004°16'0 0.0
2018-Jun-23 15:29N 51°17' E 004°16'0 0.1
2018-Jun-23 15:00N 51°17' E 004°16'1 1.6
2018-Jun-23 14:30N 51°18' E 004°16'2 3.8
2018-Jun-23 14:01N 51°20' E 004°16'5 9.0
2018-Jun-23 13:30N 51°24' E 004°12'611.1
2018-Jun-23 13:00N 51°22' E 004°04'5 9.2
2018-Jun-23 12:30N 51°26' E 003°58'612.2
2018-Jun-23 12:00N 51°21' E 003°52'612.4
2018-Jun-23 11:30N 51°23' E 003°43'510.2
2018-Jun-23 11:00N 51°26' E 003°36'611.8
2018-Jun-23 10:31N 51°25' E 003°27'714.0
2018-Jun-23 10:01N 51°25' E 003°16'816.2
2018-Jun-23 09:30N 51°25' E 003°03'510.0
2018-Jun-23 09:00N 51°30' E 003°03'815.7
2018-Jun-23 08:31N 51°36' E 003°10'815.1
2018-Jun-23 08:00N 51°43' E 003°13'5 9.3
2018-Jun-23 07:30N 51°48' E 003°16'5 9.8
2018-Jun-23 07:00N 51°53' E 003°17'510.1
2018-Jun-23 06:30N 51°58' E 003°19'510.6
2018-Jun-23 06:00N 52°03' E 003°21'5 9.7
2018-Jun-23 05:31N 52°07' E 003°22'612.8
2018-Jun-23 05:00N 52°14' E 003°24'713.8
2018-Jun-23 04:30N 52°21' E 003°26'713.8
2018-Jun-23 03:59N 52°28' E 003°29'613.4
2018-Jun-23 03:30N 52°34' E 003°30'612.7
2018-Jun-23 03:00N 52°40' E 003°35'612.7
2018-Jun-23 02:30N 52°44' E 003°42'712.4
2018-Jun-23 01:58N 52°50' E 003°48'612.0
2018-Jun-23 01:29N 52°54' E 003°55'611.9
2018-Jun-23 01:00N 52°58' E 004°02'611.9
2018-Jun-23 00:30N 53°02' E 004°09'612.1
2018-Jun-23 00:00N 53°06' E 004°16'611.8
2018-Jun-22 23:30N 53°10' E 004°24'611.4
2018-Jun-22 23:01N 53°15' E 004°28'612.1
2018-Jun-22 22:30N 53°21' E 004°32'612.6
2018-Jun-22 22:00N 53°26' E 004°36'611.9
2018-Jun-22 21:30N 53°30' E 004°44'612.3
2018-Jun-22 21:00N 53°33' E 004°53'612.2
2018-Jun-22 20:30N 53°35' E 005°03'612.5
2018-Jun-22 20:00N 53°37' E 005°13'713.6
2018-Jun-22 19:31N 53°39' E 005°24'713.4
2018-Jun-22 19:00N 53°41' E 005°34'9211.8
2018-Jun-22 11:13N 54°00' E 008°07'311.9
2018-Jun-22 10:59N 54°00' E 008°12'611.8
2018-Jun-22 10:30N 53°60' E 008°21'918.7
2018-Jun-22 10:00N 53°57' E 008°37'815.8
2018-Jun-22 09:30N 53°51' E 008°45'714.5
2018-Jun-22 09:01N 53°51' E 008°57'713.9
2018-Jun-22 08:30N 53°53' E 009°09'611.5
2018-Jun-22 08:00N 53°52' E 009°18'611.7
2018-Jun-22 07:30N 53°47' E 009°24'510.0
2018-Jun-22 07:01N 53°43' E 009°29'5 9.8
2018-Jun-22 06:30N 53°38' E 009°32'510.3
2018-Jun-22 06:01N 53°35' E 009°38'4 8.3
2018-Jun-22 05:31N 53°34' E 009°45'4 8.5
2018-Jun-22 05:01N 53°33' E 009°52'2 4.4
2018-Jun-22 04:30N 53°32' E 009°55'0 0.2
2018-Jun-22 03:58N 53°32' E 009°55'0 0.0
2018-Jun-22 03:28N 53°32' E 009°55'0 0.0
2018-Jun-22 02:58N 53°32' E 009°55'0 0.0
2018-Jun-22 02:28N 53°32' E 009°55'0 0.0
2018-Jun-22 01:58N 53°32' E 009°55'0 0.0
2018-Jun-22 01:28N 53°32' E 009°55'0 0.0
2018-Jun-22 00:58N 53°32' E 009°55'0 0.0
2018-Jun-22 00:28N 53°32' E 009°55'0 0.0
2018-Jun-21 23:58N 53°32' E 009°55'0 0.0
2018-Jun-21 23:28N 53°32' E 009°55'0 0.0
2018-Jun-21 22:58N 53°32' E 009°55'0 0.0
2018-Jun-21 22:28N 53°32' E 009°55'0 0.0
2018-Jun-21 21:58N 53°32' E 009°55'0 0.0
2018-Jun-21 21:28N 53°32' E 009°55'0 0.0
2018-Jun-21 20:58N 53°32' E 009°55'0 0.0
2018-Jun-21 20:28N 53°32' E 009°55'0 0.0
2018-Jun-21 19:58N 53°32' E 009°55'0 0.0
2018-Jun-21 19:28N 53°32' E 009°55'0 0.0
2018-Jun-21 18:58N 53°32' E 009°55'0 0.0
2018-Jun-21 18:28N 53°32' E 009°55'0 0.0
2018-Jun-21 17:58N 53°32' E 009°55'0 0.0
2018-Jun-21 17:28N 53°32' E 009°55'0 0.0
2018-Jun-21 16:58N 53°32' E 009°55'0 0.0
2018-Jun-21 16:28N 53°32' E 009°55'0 0.0
2018-Jun-21 15:58N 53°32' E 009°55'0 0.0
2018-Jun-21 15:28N 53°32' E 009°55'0 0.0
2018-Jun-21 14:58N 53°32' E 009°55'0 0.0
2018-Jun-21 14:28N 53°32' E 009°55'0 0.0
2018-Jun-21 13:58N 53°32' E 009°55'0 0.0
2018-Jun-21 13:28N 53°32' E 009°55'0 0.0
2018-Jun-21 12:58N 53°32' E 009°55'0 0.0
2018-Jun-21 12:28N 53°32' E 009°55'0 0.0
2018-Jun-21 11:58N 53°32' E 009°55'0 0.0
2018-Jun-21 11:28N 53°32' E 009°55'0 0.0
2018-Jun-21 10:58N 53°32' E 009°55'0 0.0
2018-Jun-21 10:28N 53°32' E 009°55'0 0.0
2018-Jun-21 09:58N 53°32' E 009°55'0 0.0
2018-Jun-21 09:28N 53°32' E 009°55'0 0.0
2018-Jun-21 08:58N 53°32' E 009°55'0 0.0
2018-Jun-21 08:28N 53°32' E 009°55'0 0.0
2018-Jun-21 07:58N 53°32' E 009°55'0 0.0
2018-Jun-21 07:28N 53°32' E 009°55'0 0.0
2018-Jun-21 06:58N 53°32' E 009°55'0 0.0
2018-Jun-21 06:28N 53°32' E 009°55'0 0.0
2018-Jun-21 05:58N 53°32' E 009°55'0 0.0
2018-Jun-21 05:28N 53°32' E 009°55'0 0.0
2018-Jun-21 04:58N 53°32' E 009°55'0 0.0
2018-Jun-21 04:28N 53°32' E 009°55'0 0.0
2018-Jun-21 03:58N 53°32' E 009°55'0 0.0
2018-Jun-21 03:31N 53°32' E 009°55'0 0.0
2018-Jun-21 03:01N 53°32' E 009°55'0 0.0
2018-Jun-21 02:31N 53°32' E 009°55'0 0.0
2018-Jun-21 01:58N 53°32' E 009°55'0 0.0
2018-Jun-21 01:28N 53°32' E 009°55'0 0.0
2018-Jun-21 00:58N 53°32' E 009°55'0 0.0
2018-Jun-21 00:31N 53°32' E 009°55'0 0.0
2018-Jun-20 23:58N 53°32' E 009°55'0 0.0
2018-Jun-20 23:28N 53°32' E 009°55'0 0.0
2018-Jun-20 22:58N 53°32' E 009°55'0 0.0
2018-Jun-20 22:28N 53°32' E 009°55'0 0.0
2018-Jun-20 22:00N 53°32' E 009°55'0 0.0
2018-Jun-20 21:31N 53°32' E 009°55'0 0.5
2018-Jun-20 21:00N 53°32' E 009°55'1 1.5
2018-Jun-20 20:31N 53°32' E 009°54'3 5.9
2018-Jun-20 20:00N 53°33' E 009°49'510.1
2018-Jun-20 19:30N 53°34' E 009°41'612.0
2018-Jun-20 19:00N 53°37' E 009°33'612.7
2018-Jun-20 18:30N 53°43' E 009°28'714.0
2018-Jun-20 18:00N 53°49' E 009°22'815.4
2018-Jun-20 17:31N 53°53' E 009°11'611.5
2018-Jun-20 17:00N 53°51' E 009°01'714.8
2018-Jun-20 16:30N 53°50' E 008°49'611.8
2018-Jun-20 16:00N 53°54' E 008°41'815.7
2018-Jun-20 15:30N 53°58' E 008°30'917.5
2018-Jun-20 15:00N 53°60' E 008°15'611.6
2018-Jun-20 14:30N 53°59' E 008°05'3 5.2
2018-Jun-20 14:00N 53°59' E 008°01'3 6.0
2018-Jun-20 13:30N 53°59' E 007°56'611.8
2018-Jun-20 13:00N 53°57' E 007°46'7915.7
2018-Jun-20 07:59N 53°36' E 005°37'715.4
2018-Jun-20 07:30N 53°33' E 005°26'815.2
2018-Jun-20 06:59N 53°31' E 005°13'715.0
2018-Jun-20 06:30N 53°28' E 005°02'714.8
2018-Jun-20 06:00N 53°25' E 004°50'814.3
2018-Jun-20 05:26N 53°20' E 004°40'714.9
2018-Jun-20 05:00N 53°14' E 004°35'714.9
2018-Jun-20 04:30N 53°08' E 004°28'714.8
2018-Jun-20 04:00N 53°02' E 004°22'714.8
2018-Jun-20 03:30N 52°55' E 004°18'714.8
2018-Jun-20 03:00N 52°48' E 004°12'715.0
2018-Jun-20 02:30N 52°42' E 004°05'714.9
2018-Jun-20 02:01N 52°36' E 003°58'714.4
2018-Jun-20 01:31N 52°29' E 003°55'714.6
2018-Jun-20 01:00N 52°22' E 003°52'714.5
2018-Jun-20 00:30N 52°15' E 003°52'815.2
2018-Jun-20 00:00N 52°07' E 003°55'510.7
2018-Jun-19 23:30N 52°02' E 003°56'611.0
2018-Jun-19 23:00N 51°59' E 004°04'1 2.3
2018-Jun-19 22:30N 51°58' E 004°03'2 3.5
2018-Jun-19 22:00N 51°58' E 003°60'1 1.5
2018-Jun-19 21:28N 51°57' E 003°60'0 0.0
2018-Jun-19 20:58N 51°57' E 003°60'0 0.0
2018-Jun-19 20:28N 51°57' E 003°60'0 0.0
2018-Jun-19 19:59N 51°57' E 003°60'0 0.0
2018-Jun-19 19:28N 51°57' E 003°60'0 0.0
2018-Jun-19 18:58N 51°57' E 003°60'0 0.0
2018-Jun-19 18:28N 51°57' E 003°60'0 0.0
2018-Jun-19 17:58N 51°57' E 003°60'0 0.0
2018-Jun-19 17:28N 51°57' E 003°60'0 0.0
2018-Jun-19 16:58N 51°57' E 003°60'0 0.0
2018-Jun-19 16:28N 51°57' E 003°60'0 0.0
2018-Jun-19 15:58N 51°57' E 003°60'0 0.0
2018-Jun-19 15:28N 51°57' E 003°60'0 0.0
2018-Jun-19 14:58N 51°57' E 003°60'0 0.0
2018-Jun-19 14:28N 51°57' E 003°60'0 0.0
2018-Jun-19 13:58N 51°57' E 003°60'0 0.0
2018-Jun-19 13:28N 51°57' E 003°60'0 0.0
2018-Jun-19 12:58N 51°57' E 003°60'0 0.0
2018-Jun-19 12:28N 51°57' E 003°60'0 0.0
2018-Jun-19 11:58N 51°57' E 003°60'0 0.0
2018-Jun-19 11:28N 51°57' E 003°60'0 0.0
2018-Jun-19 10:58N 51°57' E 003°60'0 0.0
2018-Jun-19 10:28N 51°57' E 003°60'0 0.0
2018-Jun-19 09:58N 51°57' E 003°60'0 0.0
2018-Jun-19 09:28N 51°57' E 003°60'0 0.0
2018-Jun-19 08:58N 51°57' E 003°60'0 0.0
2018-Jun-19 08:28N 51°57' E 003°60'0 0.0
2018-Jun-19 07:58N 51°57' E 003°60'0 0.0
2018-Jun-19 07:28N 51°57' E 003°60'0 0.0
2018-Jun-19 06:58N 51°57' E 003°60'0 0.0
2018-Jun-19 06:28N 51°57' E 003°60'0 0.0
2018-Jun-19 05:58N 51°57' E 003°60'0 0.0
2018-Jun-19 05:28N 51°57' E 003°60'0 0.0
2018-Jun-19 04:58N 51°57' E 003°60'0 0.0
2018-Jun-19 04:28N 51°57' E 003°60'0 0.0
2018-Jun-19 03:58N 51°57' E 003°60'0 0.0
2018-Jun-19 03:28N 51°57' E 003°60'0 0.0
2018-Jun-19 02:58N 51°57' E 003°60'0 0.0
2018-Jun-19 02:28N 51°57' E 003°60'0 0.0
2018-Jun-19 01:58N 51°57' E 003°60'0 0.0
2018-Jun-19 01:28N 51°57' E 003°60'0 0.0
2018-Jun-19 00:58N 51°57' E 003°60'0 0.0
2018-Jun-19 00:28N 51°57' E 003°60'0 0.0
2018-Jun-18 23:58N 51°57' E 003°60'0 0.0
2018-Jun-18 23:28N 51°57' E 003°60'0 0.0
2018-Jun-18 22:58N 51°57' E 003°60'0 0.0
2018-Jun-18 21:58N 51°57' E 003°60'0 0.0
2018-Jun-18 21:28N 51°57' E 003°60'0 0.0
2018-Jun-18 20:58N 51°57' E 003°60'0 0.0
2018-Jun-18 20:28N 51°57' E 003°60'0 0.0
2018-Jun-18 19:58N 51°57' E 003°60'0 0.0
2018-Jun-18 19:28N 51°57' E 003°60'0 0.0
2018-Jun-18 18:58N 51°57' E 003°60'0 0.0
2018-Jun-18 18:28N 51°57' E 003°60'0 0.0
2018-Jun-18 17:58N 51°57' E 003°60'0 0.0
2018-Jun-18 17:28N 51°57' E 003°60'0 0.0
2018-Jun-18 16:58N 51°57' E 003°60'0 0.0
2018-Jun-18 16:30N 51°57' E 003°60'2 3.3
2018-Jun-18 16:01N 51°59' E 004°01'3 6.0
2018-Jun-18 15:31N 51°58' E 004°05'510.7
2018-Jun-18 15:00N 52°00' E 003°57'2 4.3
2018-Jun-18 14:30N 51°59' E 003°54'5 9.0
2018-Jun-18 14:00N 51°59' E 003°47'714.9
2018-Jun-18 13:30N 51°58' E 003°35'1121.6
2018-Jun-18 13:00N 51°55' E 003°18'2421.3
2018-Jun-18 11:53N 51°46' E 002°42'820.6
2018-Jun-18 11:30N 51°41' E 002°32'1020.8
2018-Jun-18 11:01N 51°34' E 002°20'1020.8
2018-Jun-18 10:31N 51°27' E 002°08'1120.9
2018-Jun-18 10:00N 51°19' E 001°57'1020.7
2018-Jun-18 09:31N 51°11' E 001°47'1020.5
2018-Jun-18 09:01N 51°03' E 001°36'1020.9
2018-Jun-18 08:31N 50°55' E 001°27'1121.3
2018-Jun-18 08:00N 50°44' E 001°23'1121.3
2018-Jun-18 07:30N 50°37' E 001°11'1121.6
2018-Jun-18 07:01N 50°29' E 000°59'1221.6
2018-Jun-18 06:26N 50°21' E 000°45'1021.5
2018-Jun-18 05:57N 50°13' E 000°33'921.2
2018-Jun-18 05:30N 50°07' E 000°23'1121.0
2018-Jun-18 05:00N 49°59' E 000°11'1121.3
2018-Jun-18 04:31N 49°51' E 000°00'1020.6
2018-Jun-18 04:01N 49°42' W 000°08'1019.2
2018-Jun-18 03:30N 49°33' W 000°05'510.5
2018-Jun-18 03:00N 49°30' E 000°01'510.5
2018-Jun-18 02:30N 49°28' E 000°08'1 2.2
2018-Jun-18 01:58N 49°27' E 000°10'0 0.0
2018-Jun-18 01:28N 49°27' E 000°10'0 0.0
2018-Jun-18 00:58N 49°27' E 000°10'0 0.0
2018-Jun-18 00:28N 49°27' E 000°10'0 0.0
2018-Jun-17 23:58N 49°27' E 000°10'0 0.0
2018-Jun-17 23:28N 49°27' E 000°10'0 0.0
2018-Jun-17 22:58N 49°27' E 000°10'0 0.0
2018-Jun-17 22:28N 49°27' E 000°10'0 0.0
2018-Jun-17 21:58N 49°27' E 000°10'0 0.0
2018-Jun-17 21:28N 49°27' E 000°10'0 0.0
2018-Jun-17 20:58N 49°27' E 000°10'0 0.0
2018-Jun-17 20:28N 49°27' E 000°10'0 0.0
2018-Jun-17 19:58N 49°27' E 000°10'0 0.0
2018-Jun-17 19:28N 49°27' E 000°10'0 0.0
2018-Jun-17 18:58N 49°27' E 000°10'0 0.0
2018-Jun-17 18:28N 49°27' E 000°10'0 0.0
2018-Jun-17 17:58N 49°27' E 000°10'0 0.0
2018-Jun-17 17:28N 49°27' E 000°10'0 0.0
2018-Jun-17 16:55N 49°27' E 000°10'0 0.0
2018-Jun-17 16:28N 49°27' E 000°10'0 0.0
2018-Jun-17 15:58N 49°27' E 000°10'0 0.0
2018-Jun-17 15:28N 49°27' E 000°10'0 0.0
2018-Jun-17 14:58N 49°27' E 000°10'0 0.0
2018-Jun-17 14:28N 49°27' E 000°10'0 0.0
2018-Jun-17 13:58N 49°27' E 000°10'0 0.0
2018-Jun-17 13:28N 49°27' E 000°10'0 0.0
2018-Jun-17 12:58N 49°27' E 000°10'0 0.0
2018-Jun-17 12:28N 49°27' E 000°10'0 0.0
2018-Jun-17 11:58N 49°27' E 000°10'0 0.0
2018-Jun-17 11:28N 49°27' E 000°10'0 0.0
2018-Jun-17 10:58N 49°27' E 000°10'0 0.0
2018-Jun-17 10:28N 49°27' E 000°10'0 0.0
2018-Jun-17 09:58N 49°27' E 000°10'0 0.0
2018-Jun-17 09:28N 49°27' E 000°10'0 0.0
2018-Jun-17 08:58N 49°27' E 000°10'0 0.0
2018-Jun-17 08:28N 49°27' E 000°10'0 0.0
2018-Jun-17 07:58N 49°27' E 000°10'0 0.0
2018-Jun-17 07:28N 49°27' E 000°10'0 0.0
2018-Jun-17 06:58N 49°27' E 000°10'0 0.0
2018-Jun-17 06:28N 49°27' E 000°10'0 0.0
2018-Jun-17 05:58N 49°27' E 000°10'0 0.0
2018-Jun-17 05:28N 49°27' E 000°10'0 0.0
2018-Jun-17 04:58N 49°27' E 000°10'0 0.0
2018-Jun-17 04:28N 49°27' E 000°10'0 0.0
2018-Jun-17 03:58N 49°27' E 000°10'0 0.0
2018-Jun-17 03:28N 49°27' E 000°10'0 0.0
2018-Jun-17 02:58N 49°27' E 000°10'0 0.0
2018-Jun-17 02:28N 49°27' E 000°10'0 0.0
2018-Jun-17 01:58N 49°27' E 000°10'0 0.0
2018-Jun-17 01:28N 49°27' E 000°10'0 0.0
2018-Jun-17 00:58N 49°27' E 000°10'0 0.0
2018-Jun-17 00:28N 49°27' E 000°10'0 0.0
2018-Jun-16 23:58N 49°27' E 000°10'0 0.0
2018-Jun-16 23:28N 49°27' E 000°10'0 0.0
2018-Jun-16 22:58N 49°27' E 000°10'0 0.0
2018-Jun-16 22:28N 49°27' E 000°10'0 0.0
2018-Jun-16 21:58N 49°27' E 000°10'0 0.0
2018-Jun-16 21:28N 49°27' E 000°10'0 0.0
2018-Jun-16 20:58N 49°27' E 000°10'0 0.0
2018-Jun-16 20:28N 49°27' E 000°10'0 0.0
2018-Jun-16 19:58N 49°27' E 000°10'0 0.0
2018-Jun-16 19:28N 49°27' E 000°10'0 0.0
2018-Jun-16 18:58N 49°27' E 000°10'0 0.0
2018-Jun-16 18:28N 49°27' E 000°10'0 0.0
2018-Jun-16 17:58N 49°27' E 000°10'0 0.0
2018-Jun-16 17:28N 49°27' E 000°10'0 0.0
2018-Jun-16 16:58N 49°27' E 000°10'0 0.0
2018-Jun-16 16:28N 49°27' E 000°10'0 0.0
2018-Jun-16 15:58N 49°27' E 000°10'0 0.0
2018-Jun-16 15:28N 49°27' E 000°10'0 0.0
2018-Jun-16 14:58N 49°27' E 000°10'0 0.0
2018-Jun-16 14:28N 49°27' E 000°10'0 0.0
2018-Jun-16 13:58N 49°27' E 000°10'0 0.0
2018-Jun-16 13:28N 49°27' E 000°10'0 0.0
2018-Jun-16 12:58N 49°27' E 000°10'0 0.0
2018-Jun-16 12:28N 49°27' E 000°10'0 0.0
2018-Jun-16 11:58N 49°27' E 000°10'0 0.0
2018-Jun-16 11:28N 49°27' E 000°10'0 0.0
2018-Jun-16 11:00N 49°27' E 000°10'1 1.4
2018-Jun-16 10:30N 49°27' E 000°09'2 4.0
2018-Jun-16 10:00N 49°28' E 000°06'713.0
2018-Jun-16 09:31N 49°31' W 000°03'713.5
2018-Jun-16 09:00N 49°33' W 000°13'5 9.8
2018-Jun-16 08:30N 49°35' W 000°20'713.9
2018-Jun-16 08:00N 49°37' W 000°30'714.5
2018-Jun-16 07:31N 49°40' W 000°40'714.3
2018-Jun-16 07:00N 49°42' W 000°51'714.3
2018-Jun-16 06:30N 49°45' W 001°01'714.0
2018-Jun-16 06:00N 49°48' W 001°11'612.7
2018-Jun-16 05:30N 49°50' W 001°20'611.5
2018-Jun-16 05:00N 49°51' W 001°29'710.8
2018-Jun-16 04:23N 49°51' W 001°39'9 8.1
2018-Jun-16 03:17N 49°54' W 001°53'11 7.8
2018-Jun-16 01:56N 49°53' W 002°09'8 9.8
2018-Jun-16 01:09N 49°53' W 002°21'210.5
2018-Jun-16 01:00N 49°53' W 002°23'511.0
2018-Jun-16 00:30N 49°51' W 002°31'611.4
2018-Jun-16 00:00N 49°50' W 002°40'611.9
2018-Jun-15 23:30N 49°49' W 002°49'612.2
2018-Jun-15 23:00N 49°47' W 002°58'612.5
2018-Jun-15 22:30N 49°44' W 003°07'612.7
2018-Jun-15 22:00N 49°41' W 003°15'8214.3
2018-Jun-15 16:16N 49°00' W 005°04'518.9
2018-Jun-15 16:01N 48°58' W 005°11'918.9
2018-Jun-15 15:31N 48°53' W 005°23'918.6
2018-Jun-15 15:01N 48°48' W 005°35'4019.7
2018-Jun-15 13:00N 48°12' W 006°00'1313.4 290 / 121022.110.8 21.0 8.6
2018-Jun-15 12:00N 48°02' W 006°12'1716.8
2018-Jun-15 10:59N 47°46' W 006°24'35316.8
2018-Jun-14 14:00N 42°24' W 009°48'   340 / 121022.810.8 18.012.916.0
Track history (hours):
 
Tides and Currents Weather Stations Pressure Air Temp Water Temp Dewpoint Dewpoint Depression Visibility Wind Speed Wind Dir Waves Ship Positions

CMA CGM Nevada

Last reported at 2018-Jun-24 04:59 UTC. Time now 2018-Jun-24 05:07 UTC.
Position N 51°17' E 004°16'.

Length 366 m; draft 12.5 m.

Type: Ship (hazmat cat A). MMSI: 229639000.

Date/timePositionNaut miles runAvg speedWind from/ knotsBaromVisibWave heightAir tempDewpointWater temp
2018-Jun-24 04:59N 51°17' E 004°16'0 0.0
2018-Jun-24 04:29N 51°17' E 004°16'0 0.0
2018-Jun-24 03:59N 51°17' E 004°16'0 0.0
2018-Jun-24 03:29N 51°17' E 004°16'0 0.0
2018-Jun-24 02:59N 51°17' E 004°16'0 0.0
2018-Jun-24 02:29N 51°17' E 004°16'0 0.0
2018-Jun-24 01:59N 51°17' E 004°16'0 0.0
2018-Jun-24 01:29N 51°17' E 004°16'0 0.0
2018-Jun-24 00:59N 51°17' E 004°16'0 0.0
2018-Jun-24 00:29N 51°17' E 004°16'0 0.0
2018-Jun-23 23:59N 51°17' E 004°16'0 0.0
2018-Jun-23 23:29N 51°17' E 004°16'0 0.0
2018-Jun-23 22:59N 51°17' E 004°16'0 0.0
2018-Jun-23 22:29N 51°17' E 004°16'0 0.0
2018-Jun-23 21:56N 51°17' E 004°16'0 0.0
2018-Jun-23 21:29N 51°17' E 004°16'0 0.0
2018-Jun-23 20:59N 51°17' E 004°16'0 0.0
2018-Jun-23 20:29N 51°17' E 004°16'0 0.0
2018-Jun-23 19:59N 51°17' E 004°16'0 0.0
2018-Jun-23 19:29N 51°17' E 004°16'0 0.0
2018-Jun-23 18:59N 51°17' E 004°16'0 0.0
2018-Jun-23 18:29N 51°17' E 004°16'0 0.0
2018-Jun-23 17:59N 51°17' E 004°16'0 0.0
2018-Jun-23 17:23N 51°17' E 004°16'0 0.0
2018-Jun-23 16:59N 51°17' E 004°16'0 0.0
2018-Jun-23 16:29N 51°17' E 004°16'0 0.0
2018-Jun-23 15:59N 51°17' E 004°16'0 0.0
2018-Jun-23 15:29N 51°17' E 004°16'0 0.1
2018-Jun-23 15:00N 51°17' E 004°16'1 1.6
2018-Jun-23 14:30N 51°18' E 004°16'2 3.8
2018-Jun-23 14:01N 51°20' E 004°16'5 9.0
2018-Jun-23 13:30N 51°24' E 004°12'611.1
2018-Jun-23 13:00N 51°22' E 004°04'5 9.2
2018-Jun-23 12:30N 51°26' E 003°58'612.2
2018-Jun-23 12:00N 51°21' E 003°52'612.4
2018-Jun-23 11:30N 51°23' E 003°43'510.2
2018-Jun-23 11:00N 51°26' E 003°36'611.8
2018-Jun-23 10:31N 51°25' E 003°27'714.0
2018-Jun-23 10:01N 51°25' E 003°16'816.2
2018-Jun-23 09:30N 51°25' E 003°03'510.0
2018-Jun-23 09:00N 51°30' E 003°03'815.7
2018-Jun-23 08:31N 51°36' E 003°10'815.1
2018-Jun-23 08:00N 51°43' E 003°13'5 9.3
2018-Jun-23 07:30N 51°48' E 003°16'5 9.8
2018-Jun-23 07:00N 51°53' E 003°17'510.1
2018-Jun-23 06:30N 51°58' E 003°19'510.6
2018-Jun-23 06:00N 52°03' E 003°21'5 9.7
2018-Jun-23 05:31N 52°07' E 003°22'612.8
2018-Jun-23 05:00N 52°14' E 003°24'713.8
2018-Jun-23 04:30N 52°21' E 003°26'713.8
2018-Jun-23 03:59N 52°28' E 003°29'613.4
2018-Jun-23 03:30N 52°34' E 003°30'612.7
2018-Jun-23 03:00N 52°40' E 003°35'612.7
2018-Jun-23 02:30N 52°44' E 003°42'712.4
2018-Jun-23 01:58N 52°50' E 003°48'612.0
2018-Jun-23 01:29N 52°54' E 003°55'611.9
2018-Jun-23 01:00N 52°58' E 004°02'611.9
2018-Jun-23 00:30N 53°02' E 004°09'612.1
2018-Jun-23 00:00N 53°06' E 004°16'611.8
2018-Jun-22 23:30N 53°10' E 004°24'611.4
2018-Jun-22 23:01N 53°15' E 004°28'612.1
2018-Jun-22 22:30N 53°21' E 004°32'612.6
2018-Jun-22 22:00N 53°26' E 004°36'611.9
2018-Jun-22 21:30N 53°30' E 004°44'612.3
2018-Jun-22 21:00N 53°33' E 004°53'612.2
2018-Jun-22 20:30N 53°35' E 005°03'612.5
2018-Jun-22 20:00N 53°37' E 005°13'713.6
2018-Jun-22 19:31N 53°39' E 005°24'713.4
2018-Jun-22 19:00N 53°41' E 005°34'9211.8
2018-Jun-22 11:13N 54°00' E 008°07'311.9
2018-Jun-22 10:59N 54°00' E 008°12'611.8
2018-Jun-22 10:30N 53°60' E 008°21'918.7
2018-Jun-22 10:00N 53°57' E 008°37'815.8
2018-Jun-22 09:30N 53°51' E 008°45'714.5
2018-Jun-22 09:01N 53°51' E 008°57'713.9
2018-Jun-22 08:30N 53°53' E 009°09'611.5
2018-Jun-22 08:00N 53°52' E 009°18'611.7
2018-Jun-22 07:30N 53°47' E 009°24'510.0
2018-Jun-22 07:01N 53°43' E 009°29'5 9.8
2018-Jun-22 06:30N 53°38' E 009°32'510.3
2018-Jun-22 06:01N 53°35' E 009°38'4 8.3
2018-Jun-22 05:31N 53°34' E 009°45'4 8.5
2018-Jun-22 05:01N 53°33' E 009°52'2 4.4
2018-Jun-22 04:30N 53°32' E 009°55'0 0.2
2018-Jun-22 03:58N 53°32' E 009°55'0 0.0
2018-Jun-22 03:28N 53°32' E 009°55'0 0.0
2018-Jun-22 02:58N 53°32' E 009°55'0 0.0
2018-Jun-22 02:28N 53°32' E 009°55'0 0.0
2018-Jun-22 01:58N 53°32' E 009°55'0 0.0
2018-Jun-22 01:28N 53°32' E 009°55'0 0.0
2018-Jun-22 00:58N 53°32' E 009°55'0 0.0
2018-Jun-22 00:28N 53°32' E 009°55'0 0.0
2018-Jun-21 23:58N 53°32' E 009°55'0 0.0
2018-Jun-21 23:28N 53°32' E 009°55'0 0.0
2018-Jun-21 22:58N 53°32' E 009°55'0 0.0
2018-Jun-21 22:28N 53°32' E 009°55'0 0.0
2018-Jun-21 21:58N 53°32' E 009°55'0 0.0
2018-Jun-21 21:28N 53°32' E 009°55'0 0.0
2018-Jun-21 20:58N 53°32' E 009°55'0 0.0
2018-Jun-21 20:28N 53°32' E 009°55'0 0.0
2018-Jun-21 19:58N 53°32' E 009°55'0 0.0
2018-Jun-21 19:28N 53°32' E 009°55'0 0.0
2018-Jun-21 18:58N 53°32' E 009°55'0 0.0
2018-Jun-21 18:28N 53°32' E 009°55'0 0.0
2018-Jun-21 17:58N 53°32' E 009°55'0 0.0
2018-Jun-21 17:28N 53°32' E 009°55'0 0.0
2018-Jun-21 16:58N 53°32' E 009°55'0 0.0
2018-Jun-21 16:28N 53°32' E 009°55'0 0.0
2018-Jun-21 15:58N 53°32' E 009°55'0 0.0
2018-Jun-21 15:28N 53°32' E 009°55'0 0.0
2018-Jun-21 14:58N 53°32' E 009°55'0 0.0
2018-Jun-21 14:28N 53°32' E 009°55'0 0.0
2018-Jun-21 13:58N 53°32' E 009°55'0 0.0
2018-Jun-21 13:28N 53°32' E 009°55'0 0.0
2018-Jun-21 12:58N 53°32' E 009°55'0 0.0
2018-Jun-21 12:28N 53°32' E 009°55'0 0.0
2018-Jun-21 11:58N 53°32' E 009°55'0 0.0
2018-Jun-21 11:28N 53°32' E 009°55'0 0.0
2018-Jun-21 10:58N 53°32' E 009°55'0 0.0
2018-Jun-21 10:28N 53°32' E 009°55'0 0.0
2018-Jun-21 09:58N 53°32' E 009°55'0 0.0
2018-Jun-21 09:28N 53°32' E 009°55'0 0.0
2018-Jun-21 08:58N 53°32' E 009°55'0 0.0
2018-Jun-21 08:28N 53°32' E 009°55'0 0.0
2018-Jun-21 07:58N 53°32' E 009°55'0 0.0
2018-Jun-21 07:28N 53°32' E 009°55'0 0.0
2018-Jun-21 06:58N 53°32' E 009°55'0 0.0
2018-Jun-21 06:28N 53°32' E 009°55'0 0.0
2018-Jun-21 05:58N 53°32' E 009°55'0 0.0
2018-Jun-21 05:28N 53°32' E 009°55'0 0.0
2018-Jun-21 04:58N 53°32' E 009°55'0 0.0
2018-Jun-21 04:28N 53°32' E 009°55'0 0.0
2018-Jun-21 03:58N 53°32' E 009°55'0 0.0
2018-Jun-21 03:31N 53°32' E 009°55'0 0.0
2018-Jun-21 03:01N 53°32' E 009°55'0 0.0
2018-Jun-21 02:31N 53°32' E 009°55'0 0.0
2018-Jun-21 01:58N 53°32' E 009°55'0 0.0
2018-Jun-21 01:28N 53°32' E 009°55'0 0.0
2018-Jun-21 00:58N 53°32' E 009°55'0 0.0
2018-Jun-21 00:31N 53°32' E 009°55'0 0.0
2018-Jun-20 23:58N 53°32' E 009°55'0 0.0
2018-Jun-20 23:28N 53°32' E 009°55'0 0.0
2018-Jun-20 22:58N 53°32' E 009°55'0 0.0
2018-Jun-20 22:28N 53°32' E 009°55'0 0.0
2018-Jun-20 22:00N 53°32' E 009°55'0 0.0
2018-Jun-20 21:31N 53°32' E 009°55'0 0.5
2018-Jun-20 21:00N 53°32' E 009°55'1 1.5
2018-Jun-20 20:31N 53°32' E 009°54'3 5.9
2018-Jun-20 20:00N 53°33' E 009°49'510.1
2018-Jun-20 19:30N 53°34' E 009°41'612.0
2018-Jun-20 19:00N 53°37' E 009°33'612.7
2018-Jun-20 18:30N 53°43' E 009°28'714.0
2018-Jun-20 18:00N 53°49' E 009°22'815.4
2018-Jun-20 17:31N 53°53' E 009°11'611.5
2018-Jun-20 17:00N 53°51' E 009°01'714.8
2018-Jun-20 16:30N 53°50' E 008°49'611.8
2018-Jun-20 16:00N 53°54' E 008°41'815.7
2018-Jun-20 15:30N 53°58' E 008°30'917.5
2018-Jun-20 15:00N 53°60' E 008°15'611.6
2018-Jun-20 14:30N 53°59' E 008°05'3 5.2
2018-Jun-20 14:00N 53°59' E 008°01'3 6.0
2018-Jun-20 13:30N 53°59' E 007°56'611.8
2018-Jun-20 13:00N 53°57' E 007°46'7915.7
2018-Jun-20 07:59N 53°36' E 005°37'715.4
2018-Jun-20 07:30N 53°33' E 005°26'815.2
2018-Jun-20 06:59N 53°31' E 005°13'715.0
2018-Jun-20 06:30N 53°28' E 005°02'714.8
2018-Jun-20 06:00N 53°25' E 004°50'814.3
2018-Jun-20 05:26N 53°20' E 004°40'714.9
2018-Jun-20 05:00N 53°14' E 004°35'714.9
2018-Jun-20 04:30N 53°08' E 004°28'714.8
2018-Jun-20 04:00N 53°02' E 004°22'714.8
2018-Jun-20 03:30N 52°55' E 004°18'714.8
2018-Jun-20 03:00N 52°48' E 004°12'715.0
2018-Jun-20 02:30N 52°42' E 004°05'714.9
2018-Jun-20 02:01N 52°36' E 003°58'714.4
2018-Jun-20 01:31N 52°29' E 003°55'714.6
2018-Jun-20 01:00N 52°22' E 003°52'714.5
2018-Jun-20 00:30N 52°15' E 003°52'815.2
2018-Jun-20 00:00N 52°07' E 003°55'510.7
2018-Jun-19 23:30N 52°02' E 003°56'611.0
2018-Jun-19 23:00N 51°59' E 004°04'1 2.3
2018-Jun-19 22:30N 51°58' E 004°03'2 3.5
2018-Jun-19 22:00N 51°58' E 003°60'1 1.5
2018-Jun-19 21:28N 51°57' E 003°60'0 0.0
2018-Jun-19 20:58N 51°57' E 003°60'0 0.0
2018-Jun-19 20:28N 51°57' E 003°60'0 0.0
2018-Jun-19 19:59N 51°57' E 003°60'0 0.0
2018-Jun-19 19:28N 51°57' E 003°60'0 0.0
2018-Jun-19 18:58N 51°57' E 003°60'0 0.0
2018-Jun-19 18:28N 51°57' E 003°60'0 0.0
2018-Jun-19 17:58N 51°57' E 003°60'0 0.0
2018-Jun-19 17:28N 51°57' E 003°60'0 0.0
2018-Jun-19 16:58N 51°57' E 003°60'0 0.0
2018-Jun-19 16:28N 51°57' E 003°60'0 0.0
2018-Jun-19 15:58N 51°57' E 003°60'0 0.0
2018-Jun-19 15:28N 51°57' E 003°60'0 0.0
2018-Jun-19 14:58N 51°57' E 003°60'0 0.0
2018-Jun-19 14:28N 51°57' E 003°60'0 0.0
2018-Jun-19 13:58N 51°57' E 003°60'0 0.0
2018-Jun-19 13:28N 51°57' E 003°60'0 0.0
2018-Jun-19 12:58N 51°57' E 003°60'0 0.0
2018-Jun-19 12:28N 51°57' E 003°60'0 0.0
2018-Jun-19 11:58N 51°57' E 003°60'0 0.0
2018-Jun-19 11:28N 51°57' E 003°60'0 0.0
2018-Jun-19 10:58N 51°57' E 003°60'0 0.0
2018-Jun-19 10:28N 51°57' E 003°60'0 0.0
2018-Jun-19 09:58N 51°57' E 003°60'0 0.0
2018-Jun-19 09:28N 51°57' E 003°60'0 0.0
2018-Jun-19 08:58N 51°57' E 003°60'0 0.0
2018-Jun-19 08:28N 51°57' E 003°60'0 0.0
2018-Jun-19 07:58N 51°57' E 003°60'0 0.0
2018-Jun-19 07:28N 51°57' E 003°60'0 0.0
2018-Jun-19 06:58N 51°57' E 003°60'0 0.0
2018-Jun-19 06:28N 51°57' E 003°60'0 0.0
2018-Jun-19 05:58N 51°57' E 003°60'0 0.0
2018-Jun-19 05:28N 51°57' E 003°60'0 0.0
2018-Jun-19 04:58N 51°57' E 003°60'0 0.0
2018-Jun-19 04:28N 51°57' E 003°60'0 0.0
2018-Jun-19 03:58N 51°57' E 003°60'0 0.0
2018-Jun-19 03:28N 51°57' E 003°60'0 0.0
2018-Jun-19 02:58N 51°57' E 003°60'0 0.0
2018-Jun-19 02:28N 51°57' E 003°60'0 0.0
2018-Jun-19 01:58N 51°57' E 003°60'0 0.0
2018-Jun-19 01:28N 51°57' E 003°60'0 0.0
2018-Jun-19 00:58N 51°57' E 003°60'0 0.0
2018-Jun-19 00:28N 51°57' E 003°60'0 0.0
2018-Jun-18 23:58N 51°57' E 003°60'0 0.0
2018-Jun-18 23:28N 51°57' E 003°60'0 0.0
2018-Jun-18 22:58N 51°57' E 003°60'0 0.0
2018-Jun-18 21:58N 51°57' E 003°60'0 0.0
2018-Jun-18 21:28N 51°57' E 003°60'0 0.0
2018-Jun-18 20:58N 51°57' E 003°60'0 0.0
2018-Jun-18 20:28N 51°57' E 003°60'0 0.0
2018-Jun-18 19:58N 51°57' E 003°60'0 0.0
2018-Jun-18 19:28N 51°57' E 003°60'0 0.0
2018-Jun-18 18:58N 51°57' E 003°60'0 0.0
2018-Jun-18 18:28N 51°57' E 003°60'0 0.0
2018-Jun-18 17:58N 51°57' E 003°60'0 0.0
2018-Jun-18 17:28N 51°57' E 003°60'0 0.0
2018-Jun-18 16:58N 51°57' E 003°60'0 0.0
2018-Jun-18 16:30N 51°57' E 003°60'2 3.3
2018-Jun-18 16:01N 51°59' E 004°01'3 6.0
2018-Jun-18 15:31N 51°58' E 004°05'510.7
2018-Jun-18 15:00N 52°00' E 003°57'2 4.3
2018-Jun-18 14:30N 51°59' E 003°54'5 9.0
2018-Jun-18 14:00N 51°59' E 003°47'714.9
2018-Jun-18 13:30N 51°58' E 003°35'1121.6
2018-Jun-18 13:00N 51°55' E 003°18'2421.3
2018-Jun-18 11:53N 51°46' E 002°42'820.6
2018-Jun-18 11:30N 51°41' E 002°32'1020.8
2018-Jun-18 11:01N 51°34' E 002°20'1020.8
2018-Jun-18 10:31N 51°27' E 002°08'1120.9
2018-Jun-18 10:00N 51°19' E 001°57'1020.7
2018-Jun-18 09:31N 51°11' E 001°47'1020.5
2018-Jun-18 09:01N 51°03' E 001°36'1020.9
2018-Jun-18 08:31N 50°55' E 001°27'1121.3
2018-Jun-18 08:00N 50°44' E 001°23'1121.3
2018-Jun-18 07:30N 50°37' E 001°11'1121.6
2018-Jun-18 07:01N 50°29' E 000°59'1221.6
2018-Jun-18 06:26N 50°21' E 000°45'1021.5
2018-Jun-18 05:57N 50°13' E 000°33'921.2
2018-Jun-18 05:30N 50°07' E 000°23'1121.0
2018-Jun-18 05:00N 49°59' E 000°11'1121.3
2018-Jun-18 04:31N 49°51' E 000°00'1020.6
2018-Jun-18 04:01N 49°42' W 000°08'1019.2
2018-Jun-18 03:30N 49°33' W 000°05'510.5
2018-Jun-18 03:00N 49°30' E 000°01'510.5
2018-Jun-18 02:30N 49°28' E 000°08'1 2.2
2018-Jun-18 01:58N 49°27' E 000°10'0 0.0
2018-Jun-18 01:28N 49°27' E 000°10'0 0.0
2018-Jun-18 00:58N 49°27' E 000°10'0 0.0
2018-Jun-18 00:28N 49°27' E 000°10'0 0.0
2018-Jun-17 23:58N 49°27' E 000°10'0 0.0
2018-Jun-17 23:28N 49°27' E 000°10'0 0.0
2018-Jun-17 22:58N 49°27' E 000°10'0 0.0
2018-Jun-17 22:28N 49°27' E 000°10'0 0.0
2018-Jun-17 21:58N 49°27' E 000°10'0 0.0
2018-Jun-17 21:28N 49°27' E 000°10'0 0.0
2018-Jun-17 20:58N 49°27' E 000°10'0 0.0
2018-Jun-17 20:28N 49°27' E 000°10'0 0.0
2018-Jun-17 19:58N 49°27' E 000°10'0 0.0
2018-Jun-17 19:28N 49°27' E 000°10'0 0.0
2018-Jun-17 18:58N 49°27' E 000°10'0 0.0
2018-Jun-17 18:28N 49°27' E 000°10'0 0.0
2018-Jun-17 17:58N 49°27' E 000°10'0 0.0
2018-Jun-17 17:28N 49°27' E 000°10'0 0.0
2018-Jun-17 16:55N 49°27' E 000°10'0 0.0
2018-Jun-17 16:28N 49°27' E 000°10'0 0.0
2018-Jun-17 15:58N 49°27' E 000°10'0 0.0
2018-Jun-17 15:28N 49°27' E 000°10'0 0.0
2018-Jun-17 14:58N 49°27' E 000°10'0 0.0
2018-Jun-17 14:28N 49°27' E 000°10'0 0.0
2018-Jun-17 13:58N 49°27' E 000°10'0 0.0
2018-Jun-17 13:28N 49°27' E 000°10'0 0.0
2018-Jun-17 12:58N 49°27' E 000°10'0 0.0
2018-Jun-17 12:28N 49°27' E 000°10'0 0.0
2018-Jun-17 11:58N 49°27' E 000°10'0 0.0
2018-Jun-17 11:28N 49°27' E 000°10'0 0.0
2018-Jun-17 10:58N 49°27' E 000°10'0 0.0
2018-Jun-17 10:28N 49°27' E 000°10'0 0.0
2018-Jun-17 09:58N 49°27' E 000°10'0 0.0
2018-Jun-17 09:28N 49°27' E 000°10'0 0.0
2018-Jun-17 08:58N 49°27' E 000°10'0 0.0
2018-Jun-17 08:28N 49°27' E 000°10'0 0.0
2018-Jun-17 07:58N 49°27' E 000°10'0 0.0
2018-Jun-17 07:28N 49°27' E 000°10'0 0.0
2018-Jun-17 06:58N 49°27' E 000°10'0 0.0
2018-Jun-17 06:28N 49°27' E 000°10'0 0.0
2018-Jun-17 05:58N 49°27' E 000°10'0 0.0
2018-Jun-17 05:28N 49°27' E 000°10'0 0.0
2018-Jun-17 04:58N 49°27' E 000°10'0 0.0
2018-Jun-17 04:28N 49°27' E 000°10'0 0.0
2018-Jun-17 03:58N 49°27' E 000°10'0 0.0
2018-Jun-17 03:28N 49°27' E 000°10'0 0.0
2018-Jun-17 02:58N 49°27' E 000°10'0 0.0
2018-Jun-17 02:28N 49°27' E 000°10'0 0.0
2018-Jun-17 01:58N 49°27' E 000°10'0 0.0
2018-Jun-17 01:28N 49°27' E 000°10'0 0.0
2018-Jun-17 00:58N 49°27' E 000°10'0 0.0
2018-Jun-17 00:28N 49°27' E 000°10'0 0.0
2018-Jun-16 23:58N 49°27' E 000°10'0 0.0
2018-Jun-16 23:28N 49°27' E 000°10'0 0.0
2018-Jun-16 22:58N 49°27' E 000°10'0 0.0
2018-Jun-16 22:28N 49°27' E 000°10'0 0.0
2018-Jun-16 21:58N 49°27' E 000°10'0 0.0
2018-Jun-16 21:28N 49°27' E 000°10'0 0.0
2018-Jun-16 20:58N 49°27' E 000°10'0 0.0
2018-Jun-16 20:28N 49°27' E 000°10'0 0.0
2018-Jun-16 19:58N 49°27' E 000°10'0 0.0
2018-Jun-16 19:28N 49°27' E 000°10'0 0.0
2018-Jun-16 18:58N 49°27' E 000°10'0 0.0
2018-Jun-16 18:28N 49°27' E 000°10'0 0.0
2018-Jun-16 17:58N 49°27' E 000°10'0 0.0
2018-Jun-16 17:28N 49°27' E 000°10'0 0.0
2018-Jun-16 16:58N 49°27' E 000°10'0 0.0
2018-Jun-16 16:28N 49°27' E 000°10'0 0.0
2018-Jun-16 15:58N 49°27' E 000°10'0 0.0
2018-Jun-16 15:28N 49°27' E 000°10'0 0.0
2018-Jun-16 14:58N 49°27' E 000°10'0 0.0
2018-Jun-16 14:28N 49°27' E 000°10'0 0.0
2018-Jun-16 13:58N 49°27' E 000°10'0 0.0
2018-Jun-16 13:28N 49°27' E 000°10'0 0.0
2018-Jun-16 12:58N 49°27' E 000°10'0 0.0
2018-Jun-16 12:28N 49°27' E 000°10'0 0.0
2018-Jun-16 11:58N 49°27' E 000°10'0 0.0
2018-Jun-16 11:28N 49°27' E 000°10'0 0.0
2018-Jun-16 11:00N 49°27' E 000°10'1 1.4
2018-Jun-16 10:30N 49°27' E 000°09'2 4.0
2018-Jun-16 10:00N 49°28' E 000°06'713.0
2018-Jun-16 09:31N 49°31' W 000°03'713.5
2018-Jun-16 09:00N 49°33' W 000°13'5 9.8
2018-Jun-16 08:30N 49°35' W 000°20'713.9
2018-Jun-16 08:00N 49°37' W 000°30'714.5
2018-Jun-16 07:31N 49°40' W 000°40'714.3
2018-Jun-16 07:00N 49°42' W 000°51'714.3
2018-Jun-16 06:30N 49°45' W 001°01'714.0
2018-Jun-16 06:00N 49°48' W 001°11'612.7
2018-Jun-16 05:30N 49°50' W 001°20'611.5
2018-Jun-16 05:00N 49°51' W 001°29'710.8
2018-Jun-16 04:23N 49°51' W 001°39'9 8.1
2018-Jun-16 03:17N 49°54' W 001°53'11 7.8
2018-Jun-16 01:56N 49°53' W 002°09'8 9.8
2018-Jun-16 01:09N 49°53' W 002°21'210.5
2018-Jun-16 01:00N 49°53' W 002°23'511.0
2018-Jun-16 00:30N 49°51' W 002°31'611.4
2018-Jun-16 00:00N 49°50' W 002°40'611.9
2018-Jun-15 23:30N 49°49' W 002°49'612.2
2018-Jun-15 23:00N 49°47' W 002°58'612.5
2018-Jun-15 22:30N 49°44' W 003°07'612.7
2018-Jun-15 22:00N 49°41' W 003°15'8214.3
2018-Jun-15 16:16N 49°00' W 005°04'518.9
2018-Jun-15 16:01N 48°58' W 005°11'918.9
2018-Jun-15 15:31N 48°53' W 005°23'918.6
2018-Jun-15 15:01N 48°48' W 005°35'4019.7
2018-Jun-15 13:00N 48°12' W 006°00'1313.4 290 / 121022.110.8 21.0 8.6
2018-Jun-15 12:00N 48°02' W 006°12'1716.8
2018-Jun-15 10:59N 47°46' W 006°24'35316.8
2018-Jun-14 14:00N 42°24' W 009°48'   340 / 121022.810.8 18.012.916.0

Dump ship's entire track history